createdAt,value
2023-02-22T00:03:57.977Z,1.20
2023-02-22T00:06:32.715Z,2.20
2023-02-22T00:09:11.675Z,1.00
2023-02-22T00:12:05.259Z,1.30
2023-02-22T00:14:35.920Z,2.10
2023-02-22T00:17:23.493Z,1.10
2023-02-22T00:20:18.832Z,1.60
2023-02-22T00:37:44.309Z,0.80
2023-02-22T00:43:44.058Z,1.90
2023-02-22T00:49:45.419Z,1.10
2023-02-22T01:03:35.339Z,1.30
2023-02-22T01:06:19.756Z,0.90
2023-02-22T01:20:21.403Z,0.90
2023-02-22T01:23:34.332Z,1.20
2023-02-22T01:39:46.007Z,1.10
2023-02-22T01:42:53.605Z,1.80
2023-02-22T01:45:42.437Z,0.80
2023-02-22T01:48:29.389Z,1.10
2023-02-22T01:51:23.891Z,1.50
2023-02-22T01:54:17.212Z,1.60
2023-02-22T02:00:18.729Z,1.70
2023-02-22T02:03:10.926Z,1.40
2023-02-22T02:05:44.956Z,1.70
2023-02-22T02:09:01.474Z,1.00
2023-02-22T02:11:52.588Z,2.50
2023-02-22T02:14:25.188Z,2.10
2023-02-22T02:18:50.631Z,3.20
2023-02-22T02:29:04.366Z,5.10
2023-02-22T02:32:16.246Z,3.40
2023-02-22T02:35:00.220Z,4.40
2023-02-22T02:37:42.619Z,3.90
2023-02-22T02:40:20.957Z,4.10
2023-02-22T02:43:27.899Z,3.70
2023-02-22T02:46:32.644Z,4.40
2023-02-22T02:49:41.497Z,5.30
2023-02-22T02:55:24.394Z,5.10
2023-02-22T02:57:54.117Z,5.70
2023-02-22T03:00:28.743Z,6.80
2023-02-22T03:03:21.858Z,7.20
2023-02-22T03:09:48.305Z,6.70
2023-02-22T03:12:33.339Z,6.40
2023-02-22T03:22:14.864Z,7.00
2023-02-22T03:25:00.887Z,6.80
2023-02-22T03:31:39.890Z,7.20
2023-02-22T03:34:42.334Z,9.90
2023-02-22T03:41:05.932Z,8.70
2023-02-22T03:44:10.798Z,8.30
2023-02-22T03:46:55.569Z,7.80
2023-02-22T03:50:12.282Z,7.60
2023-02-22T04:01:17.910Z,7.40
2023-02-22T04:03:55.665Z,6.50
2023-02-22T04:06:26.595Z,7.80
2023-02-22T04:08:56.632Z,6.60
2023-02-22T04:11:33.967Z,6.40
2023-02-22T04:14:35.466Z,7.60
2023-02-22T04:17:24.802Z,6.60
2023-02-22T04:20:27.373Z,7.20
2023-02-22T04:23:08.804Z,6.70
2023-02-22T04:25:43.311Z,6.90
2023-02-22T04:28:29.675Z,7.80
2023-02-22T04:31:19.844Z,7.50
2023-02-22T04:33:53.919Z,7.60
2023-02-22T04:39:51.811Z,7.60
2023-02-22T04:42:33.369Z,8.70
2023-02-22T04:45:26.762Z,7.00
2023-02-22T04:48:40.757Z,7.60
2023-02-22T04:54:26.759Z,8.10
2023-02-22T04:57:01.080Z,7.10
2023-02-22T04:59:54.829Z,7.90
2023-02-22T05:02:43.661Z,7.70
2023-02-22T05:25:14.964Z,7.10
2023-02-22T05:28:25.848Z,6.40
2023-02-22T05:31:02.539Z,6.30
2023-02-22T05:33:36.111Z,7.10
2023-02-22T05:36:05.312Z,5.60
2023-02-22T05:38:38.066Z,5.10
2023-02-22T05:41:17.112Z,5.30
2023-02-22T05:46:40.638Z,7.70
2023-02-22T14:35:50.356Z,12.00
2023-02-22T14:39:02.416Z,12.90
2023-02-22T14:42:46.709Z,12.60
2023-02-22T23:08:00.245Z,24.70
2023-02-22T23:19:26.715Z,18.10
2023-02-22T23:22:00.282Z,16.20
2023-02-22T23:24:49.871Z,17.10
2023-02-22T23:27:25.145Z,14.70
2023-02-22T23:30:29.147Z,17.80
2023-02-22T23:33:05.116Z,18.30
2023-02-22T23:35:38.171Z,20.90
2023-02-22T23:38:11.311Z,17.30
2023-02-22T23:43:54.265Z,13.30
2023-02-22T23:46:23.286Z,14.00
2023-02-22T23:49:02.573Z,19.70
2023-02-22T23:51:40.074Z,24.60
2023-02-22T23:54:36.758Z,18.40
2023-02-22T23:57:24.920Z,19.20
